createdAt,value
2023-03-15T00:03:25.597Z,6.70
2023-03-15T00:08:28.359Z,5.55
2023-03-15T00:13:32.136Z,7.32
2023-03-15T00:18:36.271Z,3.40
2023-03-15T00:23:40.644Z,5.28
2023-03-15T00:28:47.928Z,5.90
2023-03-15T00:33:54.732Z,3.33
2023-03-15T00:38:58.911Z,3.63
2023-03-15T00:44:01.847Z,3.58
2023-03-15T00:49:07.105Z,3.20
2023-03-15T00:54:13.885Z,5.18
2023-03-15T00:59:16.754Z,6.88
2023-03-15T01:04:21.065Z,7.00
2023-03-15T01:09:23.860Z,5.80
2023-03-15T01:14:26.674Z,6.53
2023-03-15T01:19:30.851Z,5.85
2023-03-15T01:24:33.687Z,4.13
2023-03-15T01:29:36.607Z,6.03
2023-03-15T01:34:43.196Z,6.20
2023-03-15T01:39:46.562Z,3.65
2023-03-15T01:44:52.300Z,6.53
2023-03-15T01:50:02.593Z,6.97
2023-03-15T01:55:10.133Z,7.40
2023-03-15T02:00:20.276Z,4.78
2023-03-15T02:05:36.895Z,5.65
2023-03-15T02:10:44.492Z,6.40
2023-03-15T02:15:48.729Z,3.10
2023-03-15T02:21:09.478Z,6.13
2023-03-15T02:26:22.025Z,3.78
2023-03-15T02:31:26.282Z,5.35
2023-03-15T02:36:31.960Z,5.13
2023-03-15T02:41:40.220Z,4.95
2023-03-15T02:46:47.034Z,4.45
2023-03-15T02:51:49.834Z,6.18
2023-03-15T02:56:53.324Z,3.72
2023-03-15T03:01:57.447Z,5.95
2023-03-15T03:07:00.663Z,4.78
2023-03-15T03:12:13.032Z,5.00
2023-03-15T03:17:17.380Z,5.50
2023-03-15T03:22:24.438Z,6.85
2023-03-15T03:27:27.293Z,4.70
2023-03-15T03:32:32.046Z,6.30
2023-03-15T03:37:35.821Z,5.35
2023-03-15T03:42:47.140Z,5.00
2023-03-15T03:47:52.833Z,5.30
2023-03-15T03:52:56.233Z,3.63
2023-03-15T03:58:03.507Z,5.60
2023-03-15T04:03:27.376Z,8.23
2023-03-15T04:08:38.314Z,4.72
2023-03-15T04:13:42.621Z,3.33
2023-03-15T04:18:47.769Z,6.50
2023-03-15T04:23:50.692Z,3.50
2023-03-15T04:29:14.501Z,6.00
2023-03-15T04:34:38.677Z,4.82
2023-03-15T04:39:53.370Z,8.18
2023-03-15T04:45:19.317Z,7.80
2023-03-15T04:50:42.045Z,8.10
2023-03-15T04:56:10.806Z,9.98
2023-03-15T05:01:14.780Z,8.07
2023-03-15T05:06:32.875Z,13.07
2023-03-15T05:11:49.182Z,10.20
2023-03-15T05:17:10.871Z,10.07
2023-03-15T05:22:45.620Z,9.90
2023-03-15T05:28:07.079Z,10.95
2023-03-15T05:33:17.983Z,10.15
2023-03-15T05:39:03.077Z,9.07
2023-03-15T05:44:33.554Z,8.27
2023-03-15T05:49:57.772Z,16.60
2023-03-15T05:55:20.402Z,9.52
2023-03-15T06:00:33.291Z,13.15
2023-03-15T06:05:42.770Z,11.57
2023-03-15T06:10:52.090Z,11.48
2023-03-15T06:15:54.906Z,13.82
2023-03-15T06:20:58.237Z,10.73
2023-03-15T06:26:02.494Z,12.52
2023-03-15T06:31:09.164Z,8.95
2023-03-15T06:36:19.175Z,8.40
2023-03-15T06:41:23.419Z,10.68
2023-03-15T06:46:31.986Z,9.45
2023-03-15T06:51:35.008Z,9.57
2023-03-15T06:56:39.223Z,9.75
2023-03-15T07:01:42.093Z,8.27
2023-03-15T07:06:44.854Z,7.32
2023-03-15T07:11:49.144Z,8.23
2023-03-15T07:16:51.888Z,5.60
2023-03-15T07:21:54.588Z,3.88
2023-03-15T07:26:58.725Z,11.23
2023-03-15T07:32:01.623Z,6.60
2023-03-15T07:37:04.627Z,4.88
2023-03-15T07:42:09.582Z,5.60
2023-03-15T07:47:17.390Z,5.97
2023-03-15T07:52:21.353Z,6.53
2023-03-15T07:57:27.684Z,8.77
2023-03-15T08:02:31.464Z,6.90
2023-03-15T08:07:34.170Z,5.10
2023-03-15T08:12:39.936Z,5.50
2023-03-15T08:17:43.525Z,5.00
2023-03-15T08:22:46.547Z,5.57
2023-03-15T08:27:51.168Z,4.95
2023-03-15T08:32:53.981Z,3.70
2023-03-15T08:37:57.085Z,4.00
2023-03-15T08:43:01.222Z,6.90
2023-03-15T08:48:04.021Z,4.93
2023-03-15T08:53:06.739Z,22.75
2023-03-15T08:58:12.831Z,5.28
2023-03-15T09:03:16.616Z,4.82
2023-03-15T09:08:21.429Z,3.97
2023-03-15T09:13:26.909Z,2.20
2023-03-15T09:18:29.829Z,4.13
2023-03-15T09:23:32.548Z,3.92
2023-03-15T09:28:36.622Z,3.22
2023-03-15T09:33:39.458Z,3.03
2023-03-15T09:38:43.805Z,1.52
2023-03-15T09:44:12.692Z,4.30
2023-03-15T09:49:21.245Z,3.72
2023-03-15T09:54:29.257Z,3.38
2023-03-15T09:59:35.723Z,3.05
2023-03-15T10:04:40.631Z,4.40
2023-03-15T10:09:44.277Z,7.57
2023-03-15T10:15:02.822Z,4.70
2023-03-15T10:20:12.034Z,6.40
2023-03-15T10:25:19.397Z,5.82
2023-03-15T10:30:25.786Z,5.15
2023-03-15T10:35:28.669Z,5.63
2023-03-15T10:40:43.904Z,6.20
2023-03-15T10:46:00.116Z,4.07
2023-03-15T10:51:06.859Z,3.10
2023-03-15T10:56:25.814Z,2.92
2023-03-15T11:01:34.596Z,2.08
2023-03-15T11:06:42.800Z,1.55
2023-03-15T11:11:54.591Z,2.17
2023-03-15T11:17:00.856Z,4.57
2023-03-15T11:22:04.052Z,4.72
2023-03-15T11:27:13.883Z,2.28
2023-03-15T11:32:21.811Z,2.55
2023-03-15T11:37:29.284Z,5.88
2023-03-15T11:42:36.694Z,3.63
2023-03-15T11:47:48.464Z,5.55
2023-03-15T11:52:52.736Z,3.97
2023-03-15T11:57:57.865Z,2.38
2023-03-15T12:03:35.307Z,2.55
2023-03-15T12:08:46.252Z,5.13
2023-03-15T12:14:05.348Z,6.72
2023-03-15T12:19:16.192Z,6.78
2023-03-15T12:24:24.962Z,6.10
2023-03-15T12:29:30.098Z,4.25
2023-03-15T12:34:46.913Z,2.53
2023-03-15T12:39:52.474Z,3.72
2023-03-15T12:44:55.255Z,5.35
2023-03-15T12:50:38.215Z,3.17
2023-03-15T12:55:41.935Z,3.22
2023-03-15T13:00:45.798Z,2.13
2023-03-15T13:06:03.927Z,2.10
2023-03-15T13:11:21.256Z,3.63
2023-03-15T13:16:35.545Z,5.85
2023-03-15T13:21:52.452Z,5.72
2023-03-15T13:26:59.791Z,6.25
2023-03-15T13:32:09.850Z,5.80
2023-03-15T13:37:17.053Z,7.07
2023-03-15T13:42:23.866Z,7.03
2023-03-15T13:47:27.455Z,4.10
2023-03-15T13:52:31.586Z,9.00
2023-03-15T13:57:34.984Z,7.15
2023-03-15T14:02:45.586Z,6.53
2023-03-15T14:07:51.142Z,10.45
2023-03-15T14:12:55.327Z,4.43
2023-03-15T14:18:02.992Z,5.95
2023-03-15T14:23:12.345Z,4.67
2023-03-15T14:28:17.275Z,8.13
2023-03-15T14:33:28.447Z,5.22
2023-03-15T14:38:37.603Z,4.25
2023-03-15T14:43:40.388Z,5.45
2023-03-15T14:48:43.460Z,5.38
2023-03-15T14:53:50.003Z,3.47
2023-03-15T14:58:54.138Z,7.63
2023-03-15T15:03:59.742Z,8.18
2023-03-15T15:09:06.012Z,4.88
2023-03-15T15:14:13.865Z,6.00
2023-03-15T15:19:16.884Z,6.63
2023-03-15T15:24:23.298Z,7.93
2023-03-15T15:29:25.996Z,5.00
2023-03-15T15:34:29.192Z,8.80
2023-03-15T15:39:33.341Z,6.82
2023-03-15T15:44:36.196Z,5.85
2023-03-15T15:49:41.351Z,6.93
2023-03-15T15:54:47.735Z,4.28
2023-03-15T15:59:50.491Z,8.60
2023-03-15T16:04:54.897Z,8.13
2023-03-15T16:10:00.717Z,7.28
2023-03-15T16:15:03.736Z,7.85
2023-03-15T16:20:09.118Z,7.32
2023-03-15T16:25:20.249Z,6.78
2023-03-15T16:30:24.870Z,7.28
2023-03-15T16:35:32.386Z,10.50
2023-03-15T16:40:42.131Z,7.17
2023-03-15T16:45:44.895Z,8.35
2023-03-15T16:50:48.203Z,12.23
2023-03-15T16:55:52.358Z,6.63
2023-03-15T17:00:55.974Z,8.27
2023-03-15T17:05:58.804Z,6.90
2023-03-15T17:11:02.899Z,6.18
2023-03-15T17:16:06.590Z,7.95
2023-03-15T17:21:12.895Z,7.72
2023-03-15T17:26:20.385Z,9.07
2023-03-15T17:31:25.568Z,8.73
2023-03-15T17:36:33.893Z,6.32
2023-03-15T17:41:42.558Z,5.78
2023-03-15T17:46:45.381Z,5.45
2023-03-15T17:51:48.235Z,7.20
2023-03-15T17:56:52.492Z,8.50
2023-03-15T18:01:55.313Z,10.68
2023-03-15T18:06:58.061Z,7.90
2023-03-15T18:12:02.286Z,6.07
2023-03-15T18:17:05.278Z,9.60
2023-03-15T18:22:08.052Z,9.80
2023-03-15T18:27:12.877Z,9.00
2023-03-15T18:32:15.686Z,7.85
2023-03-15T18:37:18.551Z,7.53
2023-03-15T18:42:22.638Z,7.07
2023-03-15T18:47:25.481Z,8.52
2023-03-15T18:52:28.429Z,11.63
2023-03-15T18:57:32.590Z,10.73
2023-03-15T19:02:35.352Z,10.82
2023-03-15T19:07:38.599Z,9.38
2023-03-15T19:12:44.787Z,9.30
2023-03-15T19:17:49.386Z,10.55
2023-03-15T19:22:53.230Z,14.40
2023-03-15T19:27:57.966Z,7.13
2023-03-15T19:33:01.081Z,12.65
2023-03-15T19:38:04.097Z,8.60
2023-03-15T19:43:10.170Z,7.10
2023-03-15T19:48:14.774Z,11.98
2023-03-15T19:53:19.120Z,11.20
2023-03-15T19:58:23.459Z,10.40
2023-03-15T20:03:26.692Z,9.63
2023-03-15T20:08:29.438Z,11.60
2023-03-15T20:13:33.791Z,8.88
2023-03-15T20:18:36.518Z,11.65
2023-03-15T20:23:39.451Z,6.88
2023-03-15T20:28:45.106Z,9.63
2023-03-15T20:33:50.683Z,12.35
2023-03-15T20:38:53.770Z,10.95
2023-03-15T20:43:58.345Z,8.85
2023-03-15T20:49:01.159Z,12.23
2023-03-15T20:54:07.049Z,8.80
2023-03-15T20:59:12.121Z,16.73
2023-03-15T21:04:16.049Z,13.15
2023-03-15T21:09:18.929Z,10.65
2023-03-15T21:14:23.058Z,18.40
2023-03-15T21:19:25.820Z,20.63
2023-03-15T21:24:31.885Z,9.82
2023-03-15T21:29:36.226Z,10.75
2023-03-15T21:34:39.207Z,11.88
2023-03-15T21:39:42.015Z,14.88
2023-03-15T21:44:46.150Z,24.55
2023-03-15T21:49:49.045Z,12.50
2023-03-15T21:54:51.778Z,11.40
2023-03-15T21:59:55.926Z,11.35
2023-03-15T22:04:58.904Z,11.50
2023-03-15T22:10:01.733Z,11.55
2023-03-15T22:15:07.604Z,10.82
2023-03-15T22:20:16.379Z,9.35
2023-03-15T22:25:19.269Z,13.23
2023-03-15T22:30:24.071Z,9.27
2023-03-15T22:35:27.087Z,9.60
2023-03-15T22:40:29.895Z,6.43
2023-03-15T22:45:34.407Z,11.00
2023-03-15T22:50:37.110Z,9.13
2023-03-15T22:55:39.813Z,8.80
2023-03-15T23:00:44.974Z,9.63
2023-03-15T23:05:48.105Z,9.15
2023-03-15T23:10:51.306Z,8.85
2023-03-15T23:15:55.481Z,7.05
2023-03-15T23:21:05.401Z,11.52
2023-03-15T23:26:08.198Z,10.10
2023-03-15T23:31:12.302Z,10.43
2023-03-15T23:36:15.381Z,10.05
2023-03-15T23:41:18.173Z,10.63
2023-03-15T23:46:36.028Z,11.05
2023-03-15T23:51:39.061Z,6.50
2023-03-15T23:56:41.763Z,9.98
